createdAt,value
2018-06-27T00:01:34.511Z,86.63
2018-06-27T00:04:03.401Z,86.73
2018-06-27T00:06:31.869Z,86.29
2018-06-27T00:09:00.216Z,85.95
2018-06-27T00:11:28.894Z,86.24
2018-06-27T00:14:03.492Z,86.98
2018-06-27T00:16:31.897Z,86.62
2018-06-27T00:19:01.080Z,85.97
2018-06-27T00:21:30.088Z,86.91
2018-06-27T00:23:58.458Z,87.65
2018-06-27T00:26:31.766Z,87.48
2018-06-27T00:29:00.143Z,87.35
2018-06-27T00:31:28.909Z,87.52
2018-06-27T00:33:57.274Z,87.48
2018-06-27T00:36:30.702Z,87.62
2018-06-27T00:38:59.696Z,89.07
2018-06-27T00:41:27.886Z,88.99
2018-06-27T00:43:56.319Z,88.63
2018-06-27T00:46:24.874Z,89.02
2018-06-27T00:48:53.062Z,88.57
2018-06-27T00:51:21.578Z,88.50
2018-06-27T00:53:55.317Z,89.06
2018-06-27T00:56:23.738Z,89.36
2018-06-27T00:58:52.029Z,88.86
2018-06-27T01:01:20.279Z,89.39
2018-06-27T01:03:48.960Z,90.21
2018-06-27T01:06:17.551Z,90.56
2018-06-27T01:08:45.805Z,90.04
2018-06-27T01:11:14.018Z,90.58
2018-06-27T01:13:42.298Z,90.53
2018-06-27T01:16:10.952Z,90.50
2018-06-27T01:18:39.266Z,90.90
2018-06-27T01:21:07.747Z,91.17
2018-06-27T01:23:35.987Z,90.55
2018-06-27T01:26:04.909Z,89.83
2018-06-27T01:28:33.181Z,90.09
2018-06-27T01:31:01.713Z,91.68
2018-06-27T01:33:29.893Z,90.39
2018-06-27T01:35:58.282Z,91.35
2018-06-27T01:38:26.586Z,91.30
2018-06-27T01:40:54.792Z,91.41
2018-06-27T01:43:23.109Z,92.49
2018-06-27T01:45:51.285Z,90.98
2018-06-27T01:48:19.553Z,92.13
2018-06-27T01:50:47.758Z,91.51
2018-06-27T01:53:16.173Z,92.14
2018-06-27T01:55:44.577Z,93.69
2018-06-27T01:58:13.238Z,93.77
2018-06-27T02:00:41.479Z,94.20
2018-06-27T02:03:10.213Z,94.09
2018-06-27T02:05:38.612Z,94.52
2018-06-27T02:08:06.903Z,93.93
2018-06-27T02:10:35.053Z,94.94
2018-06-27T02:13:03.365Z,93.68
2018-06-27T02:15:31.523Z,93.20
2018-06-27T02:17:59.861Z,94.27
2018-06-27T02:20:28.138Z,93.32
2018-06-27T02:23:09.060Z,94.36
2018-06-27T02:25:37.897Z,93.86
2018-06-27T02:28:06.811Z,94.57
2018-06-27T02:30:35.085Z,94.26
2018-06-27T02:33:03.605Z,95.00
2018-06-27T02:35:31.879Z,96.07
2018-06-27T02:38:00.280Z,95.77
2018-06-27T02:40:28.572Z,95.73
2018-06-27T02:42:57.032Z,96.29
2018-06-27T02:45:25.395Z,96.24
2018-06-27T02:47:53.621Z,95.30
2018-06-27T02:50:21.936Z,95.77
2018-06-27T02:52:50.112Z,95.56
2018-06-27T02:55:18.683Z,96.50
2018-06-27T02:57:46.925Z,96.31
2018-06-27T03:00:16.122Z,96.35
2018-06-27T03:02:45.569Z,96.39
2018-06-27T03:05:13.878Z,96.83
2018-06-27T03:07:42.593Z,96.78
2018-06-27T03:10:11.022Z,96.34
2018-06-27T03:12:39.409Z,96.24
2018-06-27T03:15:08.843Z,95.89
2018-06-27T03:17:37.134Z,96.18
2018-06-27T03:20:05.506Z,95.44
2018-06-27T03:22:34.081Z,94.96
2018-06-27T03:25:02.540Z,96.00
2018-06-27T03:27:30.761Z,96.05
2018-06-27T03:29:58.976Z,96.72
2018-06-27T03:32:27.318Z,95.89
2018-06-27T03:34:55.518Z,96.10
2018-06-27T03:37:23.839Z,95.89
2018-06-27T03:39:52.042Z,95.62
2018-06-27T03:42:20.723Z,95.31
2018-06-27T03:44:49.509Z,95.05
2018-06-27T03:47:17.735Z,95.48
2018-06-27T03:49:46.103Z,95.69
2018-06-27T03:52:14.417Z,95.96
2018-06-27T03:54:42.587Z,95.97
2018-06-27T03:57:11.077Z,95.26
2018-06-27T03:59:43.556Z,95.38
2018-06-27T04:02:11.854Z,94.84
2018-06-27T04:04:40.689Z,93.98
2018-06-27T04:07:08.888Z,94.17
2018-06-27T04:09:37.376Z,94.27
2018-06-27T04:12:05.532Z,94.82
2018-06-27T04:14:33.760Z,94.53
2018-06-27T04:17:02.033Z,94.27
2018-06-27T04:19:30.441Z,93.89
2018-06-27T04:21:58.605Z,94.65
2018-06-27T04:24:26.877Z,94.45
2018-06-27T04:27:20.095Z,93.25
2018-06-27T04:29:48.508Z,93.96
2018-06-27T04:32:16.842Z,93.79
2018-06-27T04:34:45.078Z,92.98
2018-06-27T04:37:13.182Z,92.61
2018-06-27T04:39:41.313Z,92.50
2018-06-27T04:42:09.429Z,93.40
2018-06-27T04:44:37.848Z,93.21
2018-06-27T04:47:06.378Z,92.96
2018-06-27T04:49:34.618Z,92.69
2018-06-27T04:52:03.090Z,92.77
2018-06-27T04:54:31.225Z,92.61
2018-06-27T04:57:00.921Z,92.66
2018-06-27T04:59:29.333Z,92.66
2018-06-27T05:01:57.698Z,92.07
2018-06-27T05:04:26.176Z,91.16
2018-06-27T05:06:54.652Z,90.84
2018-06-27T05:09:22.954Z,89.93
2018-06-27T05:11:51.228Z,91.95
2018-06-27T05:14:19.437Z,91.64
2018-06-27T05:16:47.697Z,91.42
2018-06-27T05:19:16.128Z,90.09
2018-06-27T05:21:44.588Z,88.62
2018-06-27T05:24:13.076Z,89.54
2018-06-27T05:26:41.453Z,88.97
2018-06-27T05:29:09.985Z,88.21
2018-06-27T05:31:38.512Z,86.00
2018-06-27T05:34:07.183Z,86.05
2018-06-27T05:36:36.051Z,85.76
2018-06-27T05:39:08.247Z,85.20
2018-06-27T05:41:36.436Z,83.98
2018-06-27T05:44:04.758Z,85.42
2018-06-27T05:46:33.490Z,82.88
2018-06-27T05:49:01.790Z,78.24
2018-06-27T05:51:30.758Z,71.45
2018-06-27T05:53:59.041Z,71.48
2018-06-27T05:56:27.274Z,71.16
2018-06-27T05:58:55.719Z,67.01
2018-06-27T06:01:24.825Z,68.90
2018-06-27T06:03:53.341Z,67.93
2018-06-27T06:06:21.666Z,71.40
2018-06-27T06:08:50.098Z,68.31
2018-06-27T06:11:18.584Z,64.83
2018-06-27T06:13:46.714Z,66.13
2018-06-27T06:16:14.915Z,60.30
2018-06-27T06:18:43.129Z,63.17
2018-06-27T06:21:11.533Z,64.30
2018-06-27T06:23:39.959Z,61.61
2018-06-27T06:26:08.330Z,62.17
2018-06-27T06:28:36.721Z,62.24
2018-06-27T06:31:05.002Z,57.85
2018-06-27T06:33:33.353Z,61.64
2018-06-27T06:36:01.739Z,63.11
2018-06-27T06:38:30.000Z,61.76
2018-06-27T06:40:58.297Z,60.02
2018-06-27T06:43:26.543Z,59.14
2018-06-27T06:45:54.833Z,51.56
2018-06-27T06:48:23.143Z,57.02
2018-06-27T06:50:51.417Z,58.24
2018-06-27T06:53:19.863Z,62.21
2018-06-27T06:55:48.049Z,63.54
2018-06-27T06:58:16.432Z,60.75
2018-06-27T07:00:44.727Z,58.46
2018-06-27T07:03:12.891Z,58.65
2018-06-27T07:05:41.211Z,58.93
2018-06-27T07:08:09.504Z,63.68
2018-06-27T07:10:38.277Z,61.98
2018-06-27T07:13:06.594Z,59.86
2018-06-27T07:15:35.055Z,59.09
2018-06-27T07:18:03.543Z,57.23
2018-06-27T07:20:32.076Z,58.02
2018-06-27T07:23:00.220Z,56.87
2018-06-27T07:25:29.783Z,53.87
2018-06-27T07:27:58.114Z,58.50
2018-06-27T07:30:26.429Z,58.33
2018-06-27T07:32:54.878Z,55.54
2018-06-27T07:35:23.190Z,57.98
2018-06-27T07:37:56.546Z,61.20
2018-06-27T07:40:24.864Z,61.47
2018-06-27T07:42:53.280Z,60.13
2018-06-27T07:45:21.441Z,60.58
2018-06-27T07:47:49.712Z,59.91
2018-06-27T07:50:17.959Z,57.00
2018-06-27T07:52:46.270Z,57.94
2018-06-27T07:55:14.679Z,59.42
2018-06-27T07:57:43.484Z,58.70
2018-06-27T08:00:12.147Z,59.10
2018-06-27T08:02:40.461Z,57.41
2018-06-27T08:05:08.889Z,55.62
2018-06-27T08:07:37.332Z,54.85
2018-06-27T08:10:05.962Z,56.55
2018-06-27T08:12:34.637Z,60.06
2018-06-27T08:15:03.514Z,60.87
2018-06-27T08:17:31.759Z,59.38
2018-06-27T08:20:00.095Z,58.86
2018-06-27T08:22:28.510Z,56.03
2018-06-27T08:24:56.725Z,57.08
2018-06-27T08:27:25.235Z,57.20
2018-06-27T08:29:53.528Z,57.56
2018-06-27T08:32:21.816Z,59.18
2018-06-27T08:34:50.019Z,60.48
2018-06-27T08:37:18.358Z,59.02
2018-06-27T08:39:47.597Z,57.38
2018-06-27T08:42:16.600Z,58.40
2018-06-27T08:44:45.234Z,56.70
2018-06-27T08:47:13.710Z,56.72
2018-06-27T08:49:45.941Z,55.92
2018-06-27T08:52:14.272Z,52.92
2018-06-27T08:54:46.053Z,57.64
2018-06-27T08:57:16.342Z,56.14
2018-06-27T08:59:44.687Z,56.38
2018-06-27T09:02:12.959Z,53.92
2018-06-27T09:04:41.494Z,53.26
2018-06-27T09:07:10.278Z,54.39
2018-06-27T09:09:39.388Z,57.18
2018-06-27T09:12:07.910Z,55.91
2018-06-27T09:14:36.146Z,55.75
2018-06-27T09:17:04.525Z,51.58
2018-06-27T09:19:32.886Z,53.54
2018-06-27T09:22:01.399Z,54.11
2018-06-27T09:24:29.806Z,55.90
2018-06-27T09:26:58.255Z,57.07
2018-06-27T09:29:26.702Z,57.18
2018-06-27T09:31:55.735Z,57.68
2018-06-27T09:34:25.046Z,58.41
2018-06-27T09:36:53.263Z,56.37
2018-06-27T09:39:21.493Z,56.44
2018-06-27T09:41:50.127Z,55.59
2018-06-27T09:44:18.442Z,56.18
2018-06-27T09:46:46.827Z,58.31
2018-06-27T09:49:15.160Z,58.00
2018-06-27T09:51:44.244Z,57.88
2018-06-27T09:54:12.643Z,57.24
2018-06-27T09:56:41.028Z,55.32
2018-06-27T09:59:09.646Z,53.00
2018-06-27T10:01:38.091Z,54.36
2018-06-27T10:04:06.334Z,54.49
2018-06-27T10:06:34.578Z,55.22
2018-06-27T10:09:03.511Z,52.70
2018-06-27T10:11:31.900Z,54.05
2018-06-27T10:14:00.275Z,51.57
2018-06-27T10:16:29.212Z,53.02
2018-06-27T10:18:57.519Z,52.27
2018-06-27T10:21:25.906Z,51.66
2018-06-27T10:23:54.694Z,48.23
2018-06-27T10:26:23.092Z,47.81
2018-06-27T10:28:51.539Z,46.40
2018-06-27T10:31:20.735Z,47.84
2018-06-27T10:33:49.152Z,48.89
2018-06-27T10:36:18.293Z,48.92
2018-06-27T10:38:46.809Z,47.64
2018-06-27T10:41:15.176Z,46.04
2018-06-27T10:43:43.543Z,45.65
2018-06-27T10:46:11.952Z,44.71
2018-06-27T10:48:40.205Z,45.53
2018-06-27T10:51:08.415Z,44.73
2018-06-27T10:53:36.810Z,42.64
2018-06-27T10:56:05.885Z,43.83
2018-06-27T10:58:34.124Z,43.93
2018-06-27T11:01:02.705Z,44.26
2018-06-27T11:03:30.968Z,44.40
2018-06-27T11:05:59.993Z,44.42
2018-06-27T11:08:28.279Z,44.67
2018-06-27T11:10:56.622Z,44.85
2018-06-27T11:13:25.026Z,43.13
2018-06-27T11:15:53.317Z,44.10
2018-06-27T11:18:21.660Z,42.56
2018-06-27T11:20:49.950Z,40.53
2018-06-27T11:23:18.512Z,40.00
2018-06-27T11:25:46.825Z,41.51
2018-06-27T11:28:15.106Z,41.23
2018-06-27T11:30:43.502Z,41.73
2018-06-27T11:33:11.841Z,40.99
2018-06-27T11:35:40.211Z,41.52
2018-06-27T11:38:08.473Z,40.76
2018-06-27T11:40:36.876Z,41.05
2018-06-27T11:43:05.325Z,40.21
2018-06-27T11:45:34.477Z,38.01
2018-06-27T11:48:03.383Z,38.42
2018-06-27T11:50:31.745Z,37.59
2018-06-27T11:53:00.045Z,37.75
2018-06-27T11:55:28.533Z,38.46
2018-06-27T11:57:56.886Z,37.75
2018-06-27T12:00:25.278Z,37.32
2018-06-27T12:02:53.716Z,35.69
2018-06-27T12:05:22.191Z,37.27
2018-06-27T12:07:50.502Z,36.18
2018-06-27T12:10:18.748Z,35.54
2018-06-27T12:12:47.021Z,36.57
2018-06-27T12:15:15.251Z,32.39
2018-06-27T12:17:43.476Z,35.87
2018-06-27T12:20:12.070Z,35.23
2018-06-27T12:22:40.608Z,35.46
2018-06-27T12:25:08.979Z,35.06
2018-06-27T12:27:37.275Z,36.27
2018-06-27T12:30:08.275Z,34.51
2018-06-27T12:32:36.493Z,34.21
2018-06-27T12:35:05.167Z,34.05
2018-06-27T12:37:33.425Z,33.61
2018-06-27T12:40:02.026Z,34.99
2018-06-27T12:42:31.264Z,33.98
2018-06-27T12:44:59.793Z,35.04
2018-06-27T12:47:28.399Z,34.63
2018-06-27T12:49:56.875Z,32.99
2018-06-27T12:52:25.244Z,33.80
2018-06-27T12:54:58.028Z,32.25
2018-06-27T12:57:26.321Z,33.16
2018-06-27T12:59:54.746Z,33.28
2018-06-27T13:02:23.113Z,32.79
2018-06-27T13:04:51.261Z,33.09
2018-06-27T13:07:19.518Z,33.36
2018-06-27T13:09:48.052Z,31.72
2018-06-27T13:12:17.901Z,31.65
2018-06-27T13:14:46.135Z,31.09
2018-06-27T13:17:14.837Z,31.91
2018-06-27T13:19:43.266Z,32.17
2018-06-27T13:22:11.597Z,31.79
2018-06-27T13:24:39.890Z,31.45
2018-06-27T13:27:09.155Z,31.14
2018-06-27T13:29:37.462Z,33.42
2018-06-27T13:32:05.948Z,33.57
2018-06-27T13:34:34.266Z,34.23
2018-06-27T13:37:03.727Z,32.59
2018-06-27T13:39:32.061Z,33.98
2018-06-27T13:42:06.082Z,32.03
2018-06-27T13:44:34.971Z,32.03
2018-06-27T13:47:03.417Z,32.64
2018-06-27T13:49:32.488Z,31.55
2018-06-27T13:52:01.264Z,32.93
2018-06-27T13:54:29.703Z,32.59
2018-06-27T13:56:59.230Z,32.58
2018-06-27T13:59:35.318Z,33.52
2018-06-27T14:02:05.502Z,34.63
2018-06-27T14:04:33.966Z,35.60
2018-06-27T14:07:02.384Z,35.83
2018-06-27T14:09:31.076Z,34.87
2018-06-27T14:11:59.335Z,35.89
2018-06-27T14:14:27.815Z,35.59
2018-06-27T14:16:56.329Z,35.86
2018-06-27T14:19:26.081Z,33.38
2018-06-27T14:21:54.670Z,34.16
2018-06-27T14:24:23.448Z,34.45
2018-06-27T14:26:52.228Z,34.51
2018-06-27T14:29:20.529Z,34.80
2018-06-27T14:31:49.143Z,33.63
2018-06-27T14:34:17.500Z,33.24
2018-06-27T14:36:46.471Z,33.20
2018-06-27T14:39:15.371Z,34.11
2018-06-27T14:41:44.096Z,35.39
2018-06-27T14:44:12.589Z,35.54
2018-06-27T14:46:44.982Z,34.60
2018-06-27T14:49:13.340Z,35.04
2018-06-27T14:51:41.681Z,33.96
2018-06-27T14:54:10.023Z,34.47
2018-06-27T14:56:38.584Z,33.17
2018-06-27T14:59:07.200Z,34.21
2018-06-27T15:01:35.571Z,33.91
2018-06-27T15:04:03.969Z,33.73
2018-06-27T15:06:37.049Z,33.27
2018-06-27T15:09:08.323Z,33.59
2018-06-27T15:11:36.805Z,32.83
2018-06-27T15:14:07.860Z,31.54
2018-06-27T15:16:36.406Z,31.03
2018-06-27T15:19:09.496Z,32.38
2018-06-27T15:21:37.994Z,32.48
2018-06-27T15:24:06.874Z,33.30
2018-06-27T15:26:39.357Z,31.94
2018-06-27T15:29:10.092Z,34.60
2018-06-27T15:31:38.885Z,32.54
2018-06-27T15:34:07.966Z,31.52
2018-06-27T15:36:36.342Z,31.83
2018-06-27T15:39:08.004Z,32.01
2018-06-27T15:41:36.215Z,31.00
2018-06-27T15:44:05.379Z,31.97
2018-06-27T15:46:34.162Z,31.59
2018-06-27T15:49:02.771Z,31.24
2018-06-27T15:51:31.262Z,32.18
2018-06-27T15:53:59.970Z,30.83
2018-06-27T15:56:28.273Z,32.91
2018-06-27T15:58:56.572Z,31.96
2018-06-27T16:01:25.131Z,31.39
2018-06-27T16:03:53.775Z,30.86
2018-06-27T16:06:23.225Z,31.85
2018-06-27T16:08:51.981Z,31.62
2018-06-27T16:11:20.407Z,31.98
2018-06-27T16:13:48.593Z,32.55
2018-06-27T16:16:16.875Z,32.40
2018-06-27T16:18:45.311Z,31.25
2018-06-27T16:21:13.845Z,32.41
2018-06-27T16:23:42.243Z,31.16
2018-06-27T16:26:10.857Z,31.39
2018-06-27T16:28:39.301Z,32.25
2018-06-27T16:31:09.043Z,32.60
2018-06-27T16:33:37.739Z,32.34
2018-06-27T16:36:06.789Z,32.93
2018-06-27T16:38:35.197Z,34.06
2018-06-27T16:41:04.168Z,34.04
2018-06-27T16:43:33.687Z,33.52
2018-06-27T16:46:01.993Z,32.21
2018-06-27T16:48:30.632Z,33.13
2018-06-27T16:50:59.443Z,32.10
2018-06-27T16:53:28.366Z,32.75
2018-06-27T16:55:57.144Z,32.21
2018-06-27T16:58:25.482Z,32.21
2018-06-27T17:00:53.963Z,31.75
2018-06-27T17:03:22.361Z,32.28
2018-06-27T17:05:50.646Z,32.69
2018-06-27T17:08:19.136Z,31.95
2018-06-27T17:10:47.418Z,32.11
2018-06-27T17:13:15.952Z,31.90
2018-06-27T17:15:44.858Z,31.67
2018-06-27T17:18:13.346Z,31.35
2018-06-27T17:20:41.598Z,30.60
2018-06-27T17:23:11.254Z,31.81
2018-06-27T17:25:39.673Z,31.32
2018-06-27T17:28:08.486Z,31.82
2018-06-27T17:30:36.963Z,31.44
2018-06-27T17:33:05.663Z,30.91
2018-06-27T17:35:34.007Z,32.02
2018-06-27T17:38:02.463Z,32.21
2018-06-27T17:40:31.153Z,32.19
2018-06-27T17:43:00.498Z,31.24
2018-06-27T17:45:29.166Z,31.99
2018-06-27T17:47:57.769Z,31.91
2018-06-27T17:50:26.276Z,32.88
2018-06-27T17:52:55.580Z,33.80
2018-06-27T17:55:24.205Z,32.88
2018-06-27T17:57:52.621Z,33.01
2018-06-27T18:00:21.151Z,32.07
2018-06-27T18:02:49.832Z,32.40
2018-06-27T18:05:18.726Z,33.31
2018-06-27T18:07:48.071Z,34.20
2018-06-27T18:10:16.724Z,34.07
2018-06-27T18:12:45.529Z,34.85
2018-06-27T18:15:14.276Z,34.15
2018-06-27T18:17:42.758Z,35.23
2018-06-27T18:20:11.255Z,34.45
2018-06-27T18:22:39.755Z,35.17
2018-06-27T18:25:08.230Z,34.53
2018-06-27T18:27:37.104Z,35.08
2018-06-27T18:30:06.808Z,34.87
2018-06-27T18:32:35.450Z,35.56
2018-06-27T18:35:04.084Z,35.68
2018-06-27T18:37:32.542Z,36.14
2018-06-27T18:40:00.875Z,35.36
2018-06-27T18:42:30.160Z,35.37
2018-06-27T18:44:59.971Z,36.53
2018-06-27T18:47:31.086Z,36.30
2018-06-27T18:50:00.067Z,36.40
2018-06-27T18:52:28.535Z,36.23
2018-06-27T18:54:57.069Z,36.88
2018-06-27T18:57:26.282Z,37.10
2018-06-27T18:59:55.442Z,36.55
2018-06-27T19:02:24.596Z,37.27
2018-06-27T19:04:53.532Z,36.97
2018-06-27T19:07:22.106Z,37.39
2018-06-27T19:09:51.091Z,37.62
2018-06-27T19:12:20.043Z,37.60
2018-06-27T19:14:50.395Z,37.98
2018-06-27T19:17:18.997Z,36.86
2018-06-27T19:19:47.811Z,38.94
2018-06-27T19:22:16.724Z,41.07
2018-06-27T19:24:47.103Z,41.04
2018-06-27T19:27:15.705Z,42.89
2018-06-27T19:29:45.647Z,40.82
2018-06-27T19:32:14.249Z,42.94
2018-06-27T19:34:43.346Z,43.84
2018-06-27T19:37:12.179Z,44.17
2018-06-27T19:39:41.374Z,44.94
2018-06-27T19:42:09.832Z,44.00
2018-06-27T19:44:46.192Z,43.45
2018-06-27T19:47:14.579Z,45.42
2018-06-27T19:49:43.911Z,43.65
2018-06-27T19:52:19.134Z,42.56
2018-06-27T19:54:54.476Z,42.09
2018-06-27T19:57:23.048Z,41.77
2018-06-27T19:59:51.520Z,43.22
2018-06-27T20:02:21.308Z,42.75
2018-06-27T20:04:50.040Z,43.64
2018-06-27T20:07:20.169Z,44.49
2018-06-27T20:09:49.565Z,42.11
2018-06-27T20:12:19.459Z,44.48
2018-06-27T20:14:48.368Z,42.99
2018-06-27T20:17:19.207Z,42.01
2018-06-27T20:19:49.671Z,43.76
2018-06-27T20:22:20.506Z,44.22
2018-06-27T20:24:49.843Z,43.22
2018-06-27T20:27:21.703Z,43.25
2018-06-27T20:29:59.656Z,43.13
2018-06-27T20:32:28.157Z,41.99
2018-06-27T20:35:01.651Z,42.32
2018-06-27T20:37:30.247Z,41.95
2018-06-27T20:39:58.851Z,42.31
2018-06-27T20:42:27.402Z,41.58
2018-06-27T20:44:55.881Z,41.79
2018-06-27T20:47:24.397Z,41.71
2018-06-27T20:49:53.030Z,43.16
2018-06-27T20:52:21.461Z,42.64
2018-06-27T20:54:50.704Z,42.33
2018-06-27T20:57:20.482Z,41.77
2018-06-27T20:59:54.259Z,41.67
2018-06-27T21:02:23.155Z,42.30
2018-06-27T21:04:55.352Z,42.75
2018-06-27T21:07:24.638Z,42.50
2018-06-27T21:09:54.105Z,42.54
2018-06-27T21:12:25.569Z,42.21
2018-06-27T21:14:55.388Z,42.30
2018-06-27T21:17:24.299Z,42.18
2018-06-27T21:19:52.850Z,42.48
2018-06-27T21:22:22.212Z,41.61
2018-06-27T21:24:52.243Z,42.05
2018-06-27T21:27:22.384Z,42.10
2018-06-27T21:29:51.515Z,41.55
2018-06-27T21:32:20.782Z,41.92
2018-06-27T21:35:47.492Z,41.68
2018-06-27T21:38:19.055Z,43.25
2018-06-27T21:40:49.032Z,42.93
2018-06-27T21:43:20.199Z,42.36
2018-06-27T21:45:49.942Z,42.34
2018-06-27T21:48:21.296Z,42.51
2018-06-27T21:50:55.706Z,42.85
2018-06-27T21:53:51.288Z,42.87
2018-06-27T21:56:19.603Z,43.54
2018-06-27T21:58:48.460Z,43.54
2018-06-27T22:01:18.963Z,43.01
2018-06-27T22:03:51.222Z,42.91
2018-06-27T22:06:21.620Z,42.88
2018-06-27T22:08:49.887Z,43.82
2018-06-27T22:11:20.415Z,43.12
2018-06-27T22:13:53.733Z,44.78
2018-06-27T22:16:30.696Z,45.07
2018-06-27T22:19:02.304Z,45.43
2018-06-27T22:21:38.130Z,44.54
2018-06-27T22:24:07.362Z,44.38
2018-06-27T22:26:37.125Z,44.02
2018-06-27T22:29:08.533Z,45.04
2018-06-27T22:31:42.500Z,45.17
2018-06-27T22:34:20.574Z,44.15
2018-06-27T22:36:49.004Z,44.53
2018-06-27T22:39:18.418Z,44.79
2018-06-27T22:41:56.708Z,44.43
2018-06-27T22:44:33.506Z,43.77
2018-06-27T22:47:06.408Z,44.31
2018-06-27T22:49:34.902Z,44.69
2018-06-27T22:52:03.479Z,44.83
2018-06-27T22:54:31.747Z,44.49
2018-06-27T22:57:00.602Z,45.18
2018-06-27T22:59:28.894Z,45.97
2018-06-27T23:01:59.046Z,45.66
2018-06-27T23:04:27.535Z,45.10
2018-06-27T23:06:57.006Z,45.75
2018-06-27T23:09:25.327Z,45.45
2018-06-27T23:11:53.734Z,44.85
2018-06-27T23:14:22.617Z,45.84
2018-06-27T23:16:51.127Z,45.16
2018-06-27T23:19:19.693Z,45.70
2018-06-27T23:21:48.676Z,44.75
2018-06-27T23:24:17.046Z,46.17
2018-06-27T23:26:45.363Z,45.20
2018-06-27T23:29:13.555Z,45.13
2018-06-27T23:31:42.338Z,45.20
2018-06-27T23:34:10.578Z,45.28
2018-06-27T23:36:44.220Z,44.73
2018-06-27T23:39:13.656Z,44.97
2018-06-27T23:41:42.799Z,44.69
2018-06-27T23:44:15.810Z,45.25
2018-06-27T23:46:44.573Z,45.36
2018-06-27T23:49:12.871Z,45.94
2018-06-27T23:51:41.254Z,45.42
2018-06-27T23:54:11.275Z,45.40
2018-06-27T23:56:39.974Z,45.42
2018-06-27T23:59:08.455Z,45.71
